Time;durP1;ratioP1;P1;durP2;ratioP2;P2;SDS_P1;SDS_P2;PMS_P1;PMS_P2;Temp;Humidity;BMP_temperature;BMP_pressure;BME280_temperature;BME280_humidity;BME280_pressure;Samples;Min_cycle;Max_cycle;Signal;HPM_P1;HPM_P2
2023/04/03 00:02:02;;;;;;;;;;;;;;;7.71;100.00;96494.09;5088696;28;19955;-84
2023/04/03 00:04:28;;;;;;;;;;;;;;;7.71;100.00;96494.09;5080900;28;19981;-84
2023/04/03 00:06:55;;;;;;;;;;;;;;;7.68;100.00;96489.94;5082174;28;19924;-84
2023/04/03 00:09:22;;;;;;;;;;;;;;;7.70;100.00;96487.06;5082685;28;19978;-84
2023/04/03 00:11:48;;;;;;;;;;;;;;;7.66;100.00;96486.66;5094217;28;19937;-83
2023/04/03 00:14:16;;;;;;;;;;;;;;;7.64;100.00;96485.22;5088693;28;19926;-84
2023/04/03 00:16:43;;;;;;;;;;;;;;;7.73;100.00;96478.59;5091097;28;19924;-84
2023/04/03 00:19:11;;;;;;;;;;;;;;;7.70;100.00;96487.06;5082484;28;19927;-84
2023/04/03 00:21:38;;;;;;;;;;;;;;;7.73;100.00;96478.59;5088722;28;19920;-84
2023/04/03 00:24:05;;;;;;;;;;;;;;;7.70;100.00;96476.31;5079646;28;19942;-84
2023/04/03 00:26:31;;;;;;;;;;;;;;;7.66;100.00;96485.81;5088334;28;19975;-84
2023/04/03 00:28:58;;;;;;;;;;;;;;;7.67;100.00;96482.09;5077544;28;19920;-83
2023/04/03 00:31:26;;;;;;;;;;;;;;;7.63;100.00;96486.25;5076713;28;19920;-84
2023/04/03 00:33:53;;;;;;;;;;;;;;;7.65;100.00;96486.88;5088192;28;19920;-84
2023/04/03 00:36:20;;;;;;;;;;;;;;;7.60;100.00;96493.69;5082822;28;19920;-83
2023/04/03 00:38:46;;;;;;;;;;;;;;;7.57;100.00;96485.22;5084167;28;19932;-84
2023/04/03 00:41:13;;;;;;;;;;;;;;;7.55;100.00;96487.28;5077447;28;19936;-83
2023/04/03 00:43:40;;;;;;;;;;;;;;;7.55;100.00;96482.75;5082992;28;19920;-84
2023/04/03 00:46:08;;;;;;;;;;;;;;;7.55;100.00;96487.28;5086441;28;19965;-84
2023/04/03 00:48:40;;;;;;;;;;;;;;;7.59;100.00;96485.81;5083859;28;19950;-84
2023/04/03 00:51:08;;;;;;;;;;;;;;;7.59;100.00;96485.81;5083510;28;20011;-83
2023/04/03 00:53:38;;;;;;;;;;;;;;;7.56;100.00;96481.72;5082297;28;19927;-84
2023/04/03 00:56:06;;;;;;;;;;;;;;;7.57;100.00;96477.97;5087673;28;20014;-84
2023/04/03 00:58:35;;;;;;;;;;;;;;;7.57;100.00;96471.78;5101572;28;19985;-83
2023/04/03 01:01:04;;;;;;;;;;;;;;;7.57;100.00;96472.59;5087234;28;19920;-84
2023/04/03 01:03:32;;;;;;;;;;;;;;;7.56;100.00;96468.28;5083521;28;19983;-83
2023/04/03 01:06:01;;;;;;;;;;;;;;;7.56;100.00;96476.34;5080862;28;19919;-84
2023/04/03 01:08:28;;;;;;;;;;;;;;;7.54;100.00;96456.91;5073911;28;19928;-84
2023/04/03 01:10:55;;;;;;;;;;;;;;;7.60;100.00;96458.75;5085346;28;19976;-84
2023/04/03 01:13:25;;;;;;;;;;;;;;;7.57;100.00;96461.06;5080136;28;19969;-84
2023/04/03 01:15:52;;;;;;;;;;;;;;;7.55;100.00;96466.63;5081485;28;19973;-84
2023/04/03 01:18:20;;;;;;;;;;;;;;;7.55;100.00;96468.47;5081923;28;19929;-83
2023/04/03 01:21:01;;;;;;;;;;;;;;;7.55;100.00;96473.84;5081668;28;19928;-84
2023/04/03 01:23:34;;;;;;;;;;;;;;;7.50;100.00;96461.03;5074403;28;20225;-83
2023/04/03 01:26:00;;;;;;;;;;;;;;;7.52;100.00;96463.50;5082783;28;19946;-83
2023/04/03 01:28:29;;;;;;;;;;;;;;;7.51;100.00;96465.38;5082500;28;19928;-84
2023/04/03 01:31:00;;;;;;;;;;;;;;;7.47;100.00;96460.63;5097085;28;19920;-84
2023/04/03 01:33:29;;;;;;;;;;;;;;;7.40;100.00;96466.00;5081561;28;19927;-84
2023/04/03 01:35:56;;;;;;;;;;;;;;;7.42;100.00;96458.56;5073298;28;19974;-84
2023/04/03 01:38:23;;;;;;;;;;;;;;;7.39;100.00;96460.84;5085483;28;19965;-84
2023/04/03 01:40:50;;;;;;;;;;;;;;;7.35;100.00;96457.75;5084761;28;19958;-84
2023/04/03 01:43:17;;;;;;;;;;;;;;;7.39;100.00;96456.31;5085294;28;19959;-84
2023/04/03 01:45:44;;;;;;;;;;;;;;;7.40;100.00;96459.81;5077060;28;19928;-84
2023/04/03 01:48:11;;;;;;;;;;;;;;;7.40;100.00;96454.44;5077892;28;20010;-83
2023/04/03 01:50:39;;;;;;;;;;;;;;;7.39;100.00;96450.94;5079128;28;19920;-84
2023/04/03 01:53:06;;;;;;;;;;;;;;;7.38;100.00;96457.34;5084532;28;19920;-84
2023/04/03 01:55:33;;;;;;;;;;;;;;;7.38;100.00;96451.97;5078060;28;20011;-84
2023/04/03 01:58:00;;;;;;;;;;;;;;;7.41;100.00;96448.00;5082615;28;19924;-84
2023/04/03 02:00:27;;;;;;;;;;;;;;;7.39;100.00;96448.25;5084052;28;19924;-83
2023/04/03 02:02:54;;;;;;;;;;;;;;;7.39;100.00;96445.56;5080221;28;19923;-84
2023/04/03 02:05:21;;;;;;;;;;;;;;;7.40;100.00;96449.88;5081894;28;19978;-84
2023/04/03 02:07:49;;;;;;;;;;;;;;;7.36;100.00;96448.66;5070597;28;19927;-84
2023/04/03 02:10:15;;;;;;;;;;;;;;;7.40;100.00;96443.72;5078057;28;19943;-84
2023/04/03 02:12:42;;;;;;;;;;;;;;;7.40;100.00;96444.50;5082788;28;19920;-84
2023/04/03 02:15:09;;;;;;;;;;;;;;;7.41;100.00;96445.34;5081282;28;19920;-84
2023/04/03 02:17:36;;;;;;;;;;;;;;;7.37;100.00;96444.09;5084032;28;20106;-84
2023/04/03 02:20:04;;;;;;;;;;;;;;;7.35;100.00;96448.84;5074196;28;19920;-84
2023/04/03 02:22:30;;;;;;;;;;;;;;;7.28;100.00;96448.88;5090140;28;20037;-83
2023/04/03 02:24:59;;;;;;;;;;;;;;;7.25;100.00;96440.38;5085719;28;19930;-83
2023/04/03 02:27:25;;;;;;;;;;;;;;;7.28;100.00;96445.34;5084762;28;19924;-84
2023/04/03 02:29:52;;;;;;;;;;;;;;;7.29;100.00;96447.84;5080607;28;20030;-84
2023/04/03 02:32:19;;;;;;;;;;;;;;;7.30;100.00;96438.75;5086547;28;19920;-84
2023/04/03 02:34:46;;;;;;;;;;;;;;;7.21;100.00;96446.19;5073466;28;19924;-84
2023/04/03 02:37:14;;;;;;;;;;;;;;;7.23;100.00;96448.63;5086159;28;19920;-84
2023/04/03 02:39:43;;;;;;;;;;;;;;;7.25;100.00;96443.06;5083826;28;19920;-84
2023/04/03 02:42:11;;;;;;;;;;;;;;;7.22;100.00;96447.00;5081574;28;20049;-83
2023/04/03 02:44:38;;;;;;;;;;;;;;;7.25;100.00;96441.22;5088940;28;20018;-83
2023/04/03 02:47:05;;;;;;;;;;;;;;;7.32;100.00;96443.88;5088422;28;19987;-84
2023/04/03 02:49:33;;;;;;;;;;;;;;;7.35;100.00;96440.78;5071466;28;19962;-84
2023/04/03 02:52:00;;;;;;;;;;;;;;;7.37;100.00;96439.56;5081576;28;19928;-84
2023/04/03 02:54:30;;;;;;;;;;;;;;;7.38;100.00;96443.91;5079643;28;19924;-83
2023/04/03 02:56:59;;;;;;;;;;;;;;;7.38;100.00;96441.22;5079968;28;19920;-84
2023/04/03 02:59:27;;;;;;;;;;;;;;;7.45;100.00;96436.66;5071517;28;19924;-83
2023/04/03 03:01:55;;;;;;;;;;;;;;;7.41;100.00;96446.16;5087469;28;19959;-84
2023/04/03 03:04:22;;;;;;;;;;;;;;;7.37;100.00;96439.56;5096042;28;20026;-84
2023/04/03 03:06:49;;;;;;;;;;;;;;;7.43;100.00;96446.78;5079046;28;19920;-84
2023/04/03 03:09:15;;;;;;;;;;;;;;;7.39;100.00;96442.88;5092658;28;19920;-84
2023/04/03 03:11:43;;;;;;;;;;;;;;;7.34;100.00;96439.97;5087438;28;19919;-84
2023/04/03 03:14:10;;;;;;;;;;;;;;;7.31;100.00;96444.94;5078241;28;19920;-84
2023/04/03 03:16:38;;;;;;;;;;;;;;;7.30;100.00;96438.75;5082516;28;19923;-84
2023/04/03 03:19:06;;;;;;;;;;;;;;;7.22;100.00;96442.47;5080177;28;19920;-84
2023/04/03 03:21:33;;;;;;;;;;;;;;;7.21;100.00;96437.31;5082200;28;19963;-83
2023/04/03 03:24:01;;;;;;;;;;;;;;;7.24;100.00;96439.56;5083435;28;19923;-84
2023/04/03 03:26:28;;;;;;;;;;;;;;;7.21;100.00;96445.34;5088870;28;19928;-84
2023/04/03 03:28:55;;;;;;;;;;;;;;;7.17;100.00;96442.25;5083896;28;19927;-83
2023/04/03 03:31:22;;;;;;;;;;;;;;;7.14;100.00;96444.53;5085478;28;20007;-83
2023/04/03 03:33:50;;;;;;;;;;;;;;;7.09;100.00;96441.63;5078763;28;19928;-84
2023/04/03 03:36:17;;;;;;;;;;;;;;;7.12;100.00;96443.91;5084833;28;19924;-84
2023/04/03 03:38:44;;;;;;;;;;;;;;;7.08;100.00;96435.44;5086983;28;19928;-84
2023/04/03 03:41:11;;;;;;;;;;;;;;;7.08;100.00;96437.28;5081608;28;19924;-84
2023/04/03 03:43:38;;;;;;;;;;;;;;;7.09;100.00;96431.72;5084324;28;19920;-83
2023/04/03 03:46:06;;;;;;;;;;;;;;;7.16;100.00;96434.41;5089082;28;19920;-84
2023/04/03 03:48:33;;;;;;;;;;;;;;;7.20;100.00;96436.47;5091146;28;19931;-83
2023/04/03 03:51:01;;;;;;;;;;;;;;;7.17;100.00;96433.38;5088050;28;19920;-84
2023/04/03 03:53:31;;;;;;;;;;;;;;;7.14;100.00;96429.25;5082844;28;19969;-84
2023/04/03 03:56:03;;;;;;;;;;;;;;;7.18;100.00;96435.03;5085452;28;20052;-84
2023/04/03 03:58:32;;;;;;;;;;;;;;;7.17;100.00;96430.69;5088336;28;19920;-84
2023/04/03 04:01:01;;;;;;;;;;;;;;;7.17;100.00;96426.13;5096066;28;19963;-83
2023/04/03 04:03:28;;;;;;;;;;;;;;;7.17;100.00;96431.50;5086153;28;19966;-84
2023/04/03 04:05:54;;;;;;;;;;;;;;;7.14;100.00;96423.88;5086530;28;19968;-84
2023/04/03 04:08:23;;;;;;;;;;;;;;;7.10;100.00;96425.31;5082924;28;19960;-83
2023/04/03 04:10:49;;;;;;;;;;;;;;;7.11;100.00;96428.81;5090416;28;19978;-84
2023/04/03 04:13:18;;;;;;;;;;;;;;;7.09;100.00;96422.84;5092074;28;19961;-84
2023/04/03 04:15:46;;;;;;;;;;;;;;;7.06;100.00;96431.31;5084820;28;19966;-84
2023/04/03 04:18:14;;;;;;;;;;;;;;;7.06;100.00;96440.16;5077949;28;19967;-83
2023/04/03 04:20:45;;;;;;;;;;;;;;;7.13;100.00;96434.81;5085587;28;19966;-83
2023/04/03 04:23:12;;;;;;;;;;;;;;;7.09;100.00;96431.72;5105425;28;19956;-83
2023/04/03 04:25:41;;;;;;;;;;;;;;;7.09;100.00;96444.31;5085834;28;20003;-84
2023/04/03 04:28:08;;;;;;;;;;;;;;;7.15;100.00;96435.41;5085644;28;19963;-83
2023/04/03 04:30:35;;;;;;;;;;;;;;;7.20;100.00;96433.78;5092552;28;19927;-84
2023/04/03 04:33:02;;;;;;;;;;;;;;;7.29;100.00;96437.09;5088745;28;19973;-84
2023/04/03 04:35:31;;;;;;;;;;;;;;;7.20;100.00;96439.16;5077302;28;19962;-84
2023/04/03 04:37:58;;;;;;;;;;;;;;;7.20;100.00;96439.16;5081877;28;19964;-84
2023/04/03 04:40:24;;;;;;;;;;;;;;;7.22;100.00;96434.41;5078779;28;19927;-84
2023/04/03 04:42:53;;;;;;;;;;;;;;;7.27;100.00;96439.16;5085972;28;19921;-83
2023/04/03 04:45:20;;;;;;;;;;;;;;;7.31;100.00;96440.41;5079443;28;19924;-83
2023/04/03 04:47:49;;;;;;;;;;;;;;;7.25;100.00;96435.84;5078535;28;19920;-84
2023/04/03 04:50:16;;;;;;;;;;;;;;;7.22;100.00;96436.28;5096020;28;19920;-84
2023/04/03 04:52:43;;;;;;;;;;;;;;;7.19;100.00;96436.69;5081943;28;19959;-84
2023/04/03 04:55:10;;;;;;;;;;;;;;;7.22;100.00;96436.28;5087388;28;19982;-85
2023/04/03 04:57:38;;;;;;;;;;;;;;;7.22;100.00;96447.00;5085905;28;19989;-83
2023/04/03 05:00:08;;;;;;;;;;;;;;;7.30;100.00;96443.28;5081826;28;19920;-84
2023/04/03 05:02:35;;;;;;;;;;;;;;;7.30;100.00;96443.28;5081155;28;19927;-84
2023/04/03 05:05:02;;;;;;;;;;;;;;;7.27;100.00;96446.38;5079141;28;20002;-84
2023/04/03 05:07:30;;;;;;;;;;;;;;;7.17;100.00;96449.47;5081313;28;19983;-84
2023/04/03 05:09:58;;;;;;;;;;;;;;;7.20;100.00;96455.28;5081594;28;19943;-83
2023/04/03 05:12:25;;;;;;;;;;;;;;;7.16;100.00;96450.50;5088102;28;19924;-84
2023/04/03 05:14:56;;;;;;;;;;;;;;;7.15;100.00;96456.91;5086760;28;19928;-84
2023/04/03 05:17:26;;;;;;;;;;;;;;;7.10;100.00;96454.03;5078267;28;19921;-84
2023/04/03 05:19:56;;;;;;;;;;;;;;;7.08;100.00;96456.06;5086341;28;19919;-84
2023/04/03 05:22:24;;;;;;;;;;;;;;;7.09;100.00;96452.38;5079434;28;19960;-83
2023/04/03 05:24:53;;;;;;;;;;;;;;;7.08;100.00;96453.41;5086616;28;19924;-84
2023/04/03 05:27:23;;;;;;;;;;;;;;;7.03;100.00;96459.41;5080318;28;19964;-84
2023/04/03 05:29:53;;;;;;;;;;;;;;;6.98;100.00;96459.16;5085888;28;19999;-84
2023/04/03 05:32:22;;;;;;;;;;;;;;;7.04;100.00;96462.91;5086152;28;19953;-84
2023/04/03 05:34:54;;;;;;;;;;;;;;;6.91;100.00;96461.03;5086969;28;19920;-84
2023/04/03 05:37:21;;;;;;;;;;;;;;;6.81;100.00;96461.41;5079012;28;19994;-84
2023/04/03 05:39:49;;;;;;;;;;;;;;;6.91;100.00;96460.19;5080066;28;19967;-84
2023/04/03 05:42:16;;;;;;;;;;;;;;;6.85;100.00;96461.84;5084403;28;19951;-84
2023/04/03 05:44:44;;;;;;;;;;;;;;;6.79;100.00;96454.63;5089417;28;19920;-84
2023/04/03 05:47:10;;;;;;;;;;;;;;;6.73;100.00;96458.94;5085929;28;20007;-84
2023/04/03 05:49:40;;;;;;;;;;;;;;;6.67;100.00;96465.13;5087174;28;19935;-83
2023/04/03 05:52:12;;;;;;;;;;;;;;;6.69;100.00;96457.69;5084468;28;19920;-84
2023/04/03 05:54:39;;;;;;;;;;;;;;;6.70;100.00;96464.72;5084484;28;20277;-84
2023/04/03 05:57:16;;;;;;;;;;;;;;;6.74;100.00;96460.59;5080438;28;19932;-84
2023/04/03 05:59:43;;;;;;;;;;;;;;;6.74;100.00;96465.13;5095842;28;19980;-84
2023/04/03 06:02:11;;;;;;;;;;;;;;;6.76;100.00;96465.75;5075786;28;19963;-84
2023/04/03 06:04:38;;;;;;;;;;;;;;;6.66;100.00;96468.81;5100004;28;19920;-83
2023/04/03 06:07:05;;;;;;;;;;;;;;;6.64;100.00;96470.88;5083730;28;19926;-83
2023/04/03 06:09:33;;;;;;;;;;;;;;;6.61;100.00;96468.63;5074555;28;20002;-83
2023/04/03 06:12:00;;;;;;;;;;;;;;;6.58;100.00;96476.22;5103745;28;19951;-84
2023/04/03 06:14:28;;;;;;;;;;;;;;;6.56;100.00;96472.91;5084665;28;19951;-84
2023/04/03 06:16:55;;;;;;;;;;;;;;;6.59;100.00;96476.03;5076302;28;20015;-84
2023/04/03 06:19:22;;;;;;;;;;;;;;;6.57;100.00;96479.94;5079310;28;19924;-83
2023/04/03 06:21:52;;;;;;;;;;;;;;;6.55;100.00;96477.44;5084643;28;19924;-83
2023/04/03 06:24:23;;;;;;;;;;;;;;;6.60;100.00;96487.59;5078126;28;19928;-83
2023/04/03 06:26:52;;;;;;;;;;;;;;;6.68;100.00;96482.03;5086693;28;19923;-83
2023/04/03 06:29:18;;;;;;;;;;;;;;;6.63;100.00;96492.56;5081278;28;19959;-83
2023/04/03 06:31:46;;;;;;;;;;;;;;;6.64;100.00;96491.50;5076798;28;19962;-83
2023/04/03 06:34:12;;;;;;;;;;;;;;;6.63;100.00;96493.41;5080583;28;19928;-83
2023/04/03 06:36:39;;;;;;;;;;;;;;;6.66;100.00;96495.66;5074341;28;19920;-83
2023/04/03 06:39:06;;;;;;;;;;;;;;;6.57;100.00;96502.22;5087616;28;19919;-82
2023/04/03 06:41:33;;;;;;;;;;;;;;;6.52;100.00;96507.38;5086794;28;19924;-84
2023/04/03 06:44:03;;;;;;;;;;;;;;;6.57;100.00;96498.72;5088426;28;19920;-84
2023/04/03 06:46:30;;;;;;;;;;;;;;;6.56;100.00;96495.19;5091374;28;19920;-84
2023/04/03 06:48:57;;;;;;;;;;;;;;;6.55;100.00;96504.28;5086949;28;19970;-83
2023/04/03 06:51:25;;;;;;;;;;;;;;;6.52;100.00;96504.69;5084067;28;19988;-83
2023/04/03 06:53:52;;;;;;;;;;;;;;;6.54;100.00;96508.00;5081853;28;19970;-83
2023/04/03 06:56:20;;;;;;;;;;;;;;;6.46;100.00;96510.88;5088612;28;19920;-83
2023/04/03 06:58:47;;;;;;;;;;;;;;;6.47;100.00;96505.28;5089520;28;19920;-83
2023/04/03 07:01:17;;;;;;;;;;;;;;;6.42;100.00;96521.16;5082800;28;19927;-82
2023/04/03 07:03:46;;;;;;;;;;;;;;;6.39;100.00;96523.41;5103490;28;19928;-83
2023/04/03 07:06:13;;;;;;;;;;;;;;;6.33;100.00;96516.16;5084170;28;19920;-82
2023/04/03 07:08:41;;;;;;;;;;;;;;;6.23;100.00;96510.34;5080837;28;19924;-82
2023/04/03 07:11:08;;;;;;;;;;;;;;;6.23;100.00;96518.38;5085124;28;20149;-82
2023/04/03 07:13:35;;;;;;;;;;;;;;;6.15;100.00;96519.38;5083434;28;19985;-83
2023/04/03 07:16:03;;;;;;;;;;;;;;;6.14;100.00;96522.25;5082442;28;19924;-83
2023/04/03 07:18:31;;;;;;;;;;;;;;;6.11;100.00;96520.81;5084207;28;19920;-83
2023/04/03 07:20:58;;;;;;;;;;;;;;;6.12;100.00;96535.06;5092473;28;19931;-83
2023/04/03 07:23:25;;;;;;;;;;;;;;;6.08;100.00;96527.41;5093468;28;19920;-82
2023/04/03 07:25:52;;;;;;;;;;;;;;;6.11;100.00;96533.41;5081546;28;19920;-82
2023/04/03 07:28:20;;;;;;;;;;;;;;;6.08;100.00;96537.28;5084366;28;19943;-82
2023/04/03 07:30:47;;;;;;;;;;;;;;;6.02;100.00;96530.88;5086952;28;19920;-82
2023/04/03 07:33:15;;;;;;;;;;;;;;;6.06;100.00;96539.31;5086945;28;20272;-82
2023/04/03 07:35:44;;;;;;;;;;;;;;;6.07;100.00;96541.81;5082698;28;19932;-82
2023/04/03 07:38:11;;;;;;;;;;;;;;;6.07;100.00;96549.03;5091890;28;19953;-82
2023/04/03 07:40:38;;;;;;;;;;;;;;;5.98;100.00;96550.22;5076917;28;19921;-82
2023/04/03 07:43:05;;;;;;;;;;;;;;;5.95;100.00;96555.97;5082465;28;19920;-82
2023/04/03 07:45:33;;;;;;;;;;;;;;;5.99;100.00;96554.56;5086746;28;19924;-82
2023/04/03 07:47:59;;;;;;;;;;;;;;;5.87;100.00;96556.91;5091822;28;19927;-82
2023/04/03 07:50:27;;;;;;;;;;;;;;;5.91;100.00;96555.53;5090978;28;19946;-82
2023/04/03 07:52:57;;;;;;;;;;;;;;;5.86;100.00;96565.16;5089118;28;19927;-82
2023/04/03 07:55:25;;;;;;;;;;;;;;;5.85;100.00;96564.34;5086659;28;19927;-82
2023/04/03 07:57:52;;;;;;;;;;;;;;;5.88;100.00;96566.63;5082657;28;20011;-82
2023/04/03 08:00:19;;;;;;;;;;;;;;;5.77;100.00;96577.88;5080304;28;19958;-83
2023/04/03 08:02:50;;;;;;;;;;;;;;;5.79;100.00;96578.50;5083418;28;19920;-83
2023/04/03 08:05:17;;;;;;;;;;;;;;;5.83;100.00;96569.06;5085384;28;19930;-83
2023/04/03 08:07:43;;;;;;;;;;;;;;;5.82;100.00;96575.44;5086405;28;19927;-84
2023/04/03 08:10:12;;;;;;;;;;;;;;;5.87;100.00;96575.66;5083371;28;19924;-83
2023/04/03 08:12:38;;;;;;;;;;;;;;;5.85;100.00;96569.69;5086486;28;19928;-83
2023/04/03 08:15:06;;;;;;;;;;;;;;;5.87;100.00;96577.53;5077373;28;19923;-82
2023/04/03 08:17:34;;;;;;;;;;;;;;;5.79;100.00;96573.13;5083157;28;19924;-83
2023/04/03 08:20:01;;;;;;;;;;;;;;;5.87;100.00;96574.88;5085701;28;19930;-83
2023/04/03 08:22:28;;;;;;;;;;;;;;;5.90;100.00;96575.31;5084363;28;19936;-83
2023/04/03 08:24:55;;;;;;;;;;;;;;;5.84;100.00;96576.06;5077109;28;19920;-83
2023/04/03 08:27:23;;;;;;;;;;;;;;;5.88;100.00;96576.53;5087334;28;19920;-84
2023/04/03 08:29:50;;;;;;;;;;;;;;;5.80;100.00;96574.78;5093045;28;19920;-84
2023/04/03 08:32:17;;;;;;;;;;;;;;;5.87;100.00;96574.88;5087652;28;19938;-83
2023/04/03 08:34:44;;;;;;;;;;;;;;;5.87;100.00;96570.31;5081255;28;19997;-83
2023/04/03 08:37:11;;;;;;;;;;;;;;;5.89;100.00;96576.34;5083189;28;19920;-83
2023/04/03 08:39:38;;;;;;;;;;;;;;;5.93;100.00;96574.94;5083749;28;20217;-83
2023/04/03 08:42:07;;;;;;;;;;;;;;;5.90;100.00;96578.00;5079838;28;19920;-83
2023/04/03 08:44:39;;;;;;;;;;;;;;;5.88;100.00;96581.88;5085233;28;19920;-83
2023/04/03 08:47:12;;;;;;;;;;;;;;;5.85;100.00;96577.72;5102297;28;19921;-83
2023/04/03 08:49:46;;;;;;;;;;;;;;;5.97;100.00;96578.88;5086049;28;19923;-83
2023/04/03 08:52:15;;;;;;;;;;;;;;;5.96;100.00;96587.94;5079830;28;19920;-84
2023/04/03 08:54:49;;;;;;;;;;;;;;;5.99;100.00;96584.88;5091320;28;19920;-83
2023/04/03 08:57:16;;;;;;;;;;;;;;;6.03;100.00;96588.81;5073232;28;19920;-83
2023/04/03 08:59:45;;;;;;;;;;;;;;;6.00;100.00;96596.41;5090507;28;19966;-83
2023/04/03 09:02:24;;;;;;;;;;;;;;;5.86;100.00;96600.84;5085389;28;19947;-83
2023/04/03 09:04:51;;;;;;;;;;;;;;;5.87;100.00;96597.09;5080518;28;19920;-84
2023/04/03 09:07:23;;;;;;;;;;;;;;;5.87;100.00;96607.03;5084078;28;19921;-83
2023/04/03 09:09:50;;;;;;;;;;;;;;;5.86;100.00;96595.47;5088003;28;19927;-83
2023/04/03 09:12:20;;;;;;;;;;;;;;;5.81;100.00;96605.09;5086998;28;19923;-83
2023/04/03 09:14:53;;;;;;;;;;;;;;;5.82;100.00;96599.53;5071969;28;19924;-83
2023/04/03 09:17:24;;;;;;;;;;;;;;;5.88;100.00;96606.84;5098626;28;19920;-83
2023/04/03 09:19:55;;;;;;;;;;;;;;;5.82;100.00;96601.41;5066868;28;19920;-84
2023/04/03 09:22:25;;;;;;;;;;;;;;;5.85;100.00;96604.53;5083052;28;19925;-84
2023/04/03 09:24:57;;;;;;;;;;;;;;;5.87;100.00;96607.81;5083176;28;19927;-84
2023/04/03 09:27:23;;;;;;;;;;;;;;;5.80;100.00;96612.31;5088481;28;19920;-84
2023/04/03 09:29:54;;;;;;;;;;;;;;;5.81;100.00;96619.31;5090161;28;19920;-83
2023/04/03 09:32:23;;;;;;;;;;;;;;;5.89;100.00;96610.34;5084490;28;19924;-83
2023/04/03 09:34:50;;;;;;;;;;;;;;;5.93;100.00;96617.81;5077014;28;19920;-83
2023/04/03 09:37:32;;;;;;;;;;;;;;;5.96;100.00;96609.38;5087710;28;19967;-84
2023/04/03 09:39:59;;;;;;;;;;;;;;;6.13;100.00;96617.09;5087851;28;19943;-83
2023/04/03 09:42:26;;;;;;;;;;;;;;;6.00;100.00;96624.06;5081582;28;20007;-83
2023/04/03 09:44:56;;;;;;;;;;;;;;;6.06;100.00;96622.44;5105417;28;19920;-83
2023/04/03 09:47:25;;;;;;;;;;;;;;;5.97;100.00;96608.34;5077972;28;20078;-84
2023/04/03 09:50:09;;;;;;;;;;;;;;;6.01;100.00;96620.34;5086167;28;19945;-84
2023/04/03 09:52:36;;;;;;;;;;;;;;;6.00;100.00;96626.72;5079082;28;20010;-84
2023/04/03 09:55:08;;;;;;;;;;;;;;;6.00;100.00;96624.06;5076286;28;19951;-83
2023/04/03 09:57:35;;;;;;;;;;;;;;;6.02;100.00;96624.69;5099137;28;19974;-82
2023/04/03 10:00:05;;;;;;;;;;;;;;;6.11;100.00;96622.69;5082900;28;19920;-83
2023/04/03 10:02:37;;;;;;;;;;;;;;;6.07;100.00;96624.91;5083927;28;19924;-83
2023/04/03 10:05:05;;;;;;;;;;;;;;;6.09;100.00;96622.06;5086157;28;19998;-83
2023/04/03 10:07:34;;;;;;;;;;;;;;;6.06;100.00;96628.63;5080070;28;19934;-83
2023/04/03 10:10:03;;;;;;;;;;;;;;;6.14;100.00;96624.13;5085404;28;19920;-83
2023/04/03 10:12:30;;;;;;;;;;;;;;;6.03;100.00;96617.47;5079778;28;19930;-83
2023/04/03 10:14:57;;;;;;;;;;;;;;;6.05;100.00;96626.97;5078228;28;19920;-84
2023/04/03 10:17:34;;;;;;;;;;;;;;;5.99;100.00;96630.44;5081371;28;19935;-84
2023/04/03 10:20:03;;;;;;;;;;;;;;;5.96;100.00;96635.34;5082378;28;19963;-83
2023/04/03 10:22:38;;;;;;;;;;;;;;;5.94;100.00;96635.56;5073954;28;19924;-82
2023/04/03 10:25:08;;;;;;;;;;;;;;;5.80;100.00;96639.09;5080951;28;19930;-81
2023/04/03 10:27:43;;;;;;;;;;;;;;;5.81;100.00;96640.75;5081945;28;20030;-81
2023/04/03 10:30:19;;;;;;;;;;;;;;;5.88;100.00;96641.66;5079911;28;19932;-81
2023/04/03 10:32:56;;;;;;;;;;;;;;;5.91;100.00;96646.66;5078141;28;19920;-81
2023/04/03 10:35:32;;;;;;;;;;;;;;;5.83;100.00;96646.75;5080122;28;19931;-84
2023/04/03 10:38:05;;;;;;;;;;;;;;;5.90;100.00;96649.53;5078619;28;19923;-82
2023/04/03 10:40:36;;;;;;;;;;;;;;;5.89;100.00;96643.34;5076133;28;19928;-82
2023/04/03 10:43:05;;;;;;;;;;;;;;;5.92;100.00;96642.97;5079457;28;19927;-82
2023/04/03 10:45:40;;;;;;;;;;;;;;;6.04;100.00;96643.22;5077966;28;19926;-81
2023/04/03 10:48:12;;;;;;;;;;;;;;;6.05;100.00;96642.22;5079773;28;19920;-82
2023/04/03 10:50:44;;;;;;;;;;;;;;;6.14;100.00;96645.56;5084257;28;19931;-82
2023/04/03 10:53:18;;;;;;;;;;;;;;;6.27;100.00;96648.38;5084772;28;19920;-82
2023/04/03 10:55:47;;;;;;;;;;;;;;;6.21;100.00;96641.13;5083945;28;19920;-82
2023/04/03 10:58:19;;;;;;;;;;;;;;;6.28;100.00;96633.94;5077916;28;20002;-82
2023/04/03 11:00:48;;;;;;;;;;;;;;;6.25;100.00;96639.69;5077112;28;19977;-82
2023/04/03 11:03:21;;;;;;;;;;;;;;;6.19;100.00;96643.16;5081719;28;19921;-82
2023/04/03 11:05:51;;;;;;;;;;;;;;;6.24;100.00;96638.84;5086352;28;19973;-82
2023/04/03 11:08:26;;;;;;;;;;;;;;;6.33;100.00;96637.69;5079943;28;20011;-81
2023/04/03 11:10:54;;;;;;;;;;;;;;;6.26;100.00;96638.66;5084032;28;19924;-82
2023/04/03 11:13:25;;;;;;;;;;;;;;;6.25;100.00;96637.00;5083191;28;19920;-82
2023/04/03 11:15:53;;;;;;;;;;;;;;;6.17;100.00;96637.16;5074315;28;20010;-82
2023/04/03 11:18:23;;;;;;;;;;;;;;;6.15;100.00;96636.50;5086021;28;19989;-82
2023/04/03 11:20:58;;;;;;;;;;;;;;;6.12;100.00;96631.56;5085822;28;19920;-82
2023/04/03 11:23:27;;;;;;;;;;;;;;;6.14;100.00;96633.00;5084676;28;19920;-82
2023/04/03 11:25:55;;;;;;;;;;;;;;;6.18;100.00;96636.13;5082053;28;19927;-82
2023/04/03 11:28:22;;;;;;;;;;;;;;;6.22;100.00;96635.53;5082112;28;19920;-82
2023/04/03 11:30:50;;;;;;;;;;;;;;;6.10;100.00;96626.41;5074045;28;19928;-83
2023/04/03 11:33:22;;;;;;;;;;;;;;;6.22;100.00;96627.50;5093342;28;19919;-82
2023/04/03 11:35:53;;;;;;;;;;;;;;;6.18;100.00;96631.59;5087812;28;19979;-82
2023/04/03 11:38:24;;;;;;;;;;;;;;;6.15;100.00;96625.78;5078195;28;19935;-85
2023/04/03 11:40:51;;;;;;;;;;;;;;;6.04;100.00;96630.66;5084940;28;19928;-80
2023/04/03 11:43:22;;;;;;;;;;;;;;;6.13;100.00;96627.84;5089658;28;19927;-82
2023/04/03 11:45:54;;;;;;;;;;;;;;;6.21;100.00;96625.03;5078726;28;19928;-81
2023/04/03 11:48:39;;;;;;;;;;;;;;;6.25;100.00;96621.75;5096360;28;19924;-82
2023/04/03 11:51:21;;;;;;;;;;;;;;;6.24;100.00;96620.09;5078967;28;19924;-81
2023/04/03 11:53:49;;;;;;;;;;;;;;;6.12;100.00;96626.19;5085054;28;19920;-82
2023/04/03 11:56:30;;;;;;;;;;;;;;;6.10;100.00;96620.19;5085471;28;19943;-81
2023/04/03 11:59:11;;;;;;;;;;;;;;;6.02;100.00;96613.97;5085411;28;20011;-82
2023/04/03 12:01:46;;;;;;;;;;;;;;;5.99;100.00;96617.03;5060986;28;20006;-82
2023/04/03 12:04:15;;;;;;;;;;;;;;;5.98;100.00;96606.50;5081843;28;19955;-81
2023/04/03 12:06:43;;;;;;;;;;;;;;;6.01;100.00;96616.84;5081891;28;19920;-82
2023/04/03 12:09:23;;;;;;;;;;;;;;;6.01;100.00;96612.31;5089909;28;19920;-82
2023/04/03 12:11:50;;;;;;;;;;;;;;;5.89;100.00;96619.22;5088745;28;19959;-81
2023/04/03 12:14:17;;;;;;;;;;;;;;;5.86;100.00;96621.44;5080217;28;19921;-81
2023/04/03 12:16:45;;;;;;;;;;;;;;;5.88;100.00;96620.22;5080182;28;19920;-82
2023/04/03 12:19:33;;;;;;;;;;;;;;;6.04;100.00;96617.25;5085511;28;19924;-81
2023/04/03 12:22:14;;;;;;;;;;;;;;;5.92;100.00;96618.00;5081145;28;19920;-81
2023/04/03 12:24:42;;;;;;;;;;;;;;;5.97;100.00;96618.25;5082579;28;19927;-81
2023/04/03 12:27:23;;;;;;;;;;;;;;;5.96;100.00;96621.94;5092525;28;19974;-81
2023/04/03 12:29:53;;;;;;;;;;;;;;;5.99;100.00;96627.75;5084730;28;19980;-81
2023/04/03 12:32:27;;;;;;;;;;;;;;;6.03;100.00;96623.66;5082058;28;19924;-82
2023/04/03 12:35:03;;;;;;;;;;;;;;;6.06;100.00;96627.78;5087209;28;19935;-82
2023/04/03 12:37:47;;;;;;;;;;;;;;;5.96;100.00;96620.09;5085469;28;19963;-82
2023/04/03 12:40:23;;;;;;;;;;;;;;;5.93;100.00;96622.34;5077653;28;19920;-82
2023/04/03 12:43:04;;;;;;;;;;;;;;;5.91;100.00;96625.22;5075913;28;19973;-81
2023/04/03 12:45:39;;;;;;;;;;;;;;;5.96;100.00;96620.09;5083332;28;19931;-81
2023/04/03 12:48:13;;;;;;;;;;;;;;;5.93;100.00;96623.19;5083672;28;19924;-81
2023/04/03 12:50:41;;;;;;;;;;;;;;;5.94;100.00;96624.84;5085542;28;19920;-81
2023/04/03 12:53:12;;;;;;;;;;;;;;;5.90;100.00;96614.69;5082716;28;19921;-81
2023/04/03 12:55:40;;;;;;;;;;;;;;;5.90;100.00;96618.19;5101331;28;19991;-81
2023/04/03 12:58:18;;;;;;;;;;;;;;;5.88;100.00;96622.09;5082428;28;19920;-82